Latest Weather Observations for Warragul (Nilma North)

IDV60801

Issued at 10:35 pm EDT Friday 24 October 2014 (issued every 30 minutes, with the page automatically refreshed every 10 minutes)

About weather observations | Map of weather stations | Latest weather observations for VIC | Other Formats
Station Details ID: 085313 Name: NILMA NORTH (WARRAGUL) Lat: -38.13 Lon: 145.99 Height: 134.11 m
Data from the previous 72 hours. | See also: Recent months for locations in Victoria
Date/Time
EDT
Temp
°C
App
Temp
°C
Dew
Point
Rel
Hum
%
Delta-T
°C
Wind Press
QNH
hPa
Press
MSL
hPa
Rain
since 9 am
mm
Dir
 
Spd
km/h
Gust
km/h
Spd
kts
Gust
kts
24/10:30pm 14.9 13.2 13.6 92 0.7 W 15 22 8 12 1015.4 1015.3 0.0
24/10:00pm 14.9 13.6 13.8 93 0.6 W 13 24 7 13 1015.1 1015.0 0.0
24/09:30pm 16.3 15.0 13.6 84 1.5 W 13 24 7 13 1014.4 1014.3 0.0
24/09:00pm 18.0 16.4 14.9 82 1.8 W 17 24 9 13 1013.3 1013.3 0.0
24/08:30pm 19.6 18.9 15.3 76 2.5 W 13 19 7 10 1012.8 1012.8 0.0
24/08:00pm 21.3 21.9 15.2 68 3.6 SW 6 15 3 8 1012.0 1012.0 0.0
24/07:30pm 23.0 23.5 15.1 61 4.7 W 6 11 3 6 1011.3 1011.3 0.0
24/07:00pm 25.2 27.0 16.4 58 5.4 WSW 2 6 1 3 1010.6 1010.6 0.0
24/06:30pm 26.0 26.7 15.7 53 6.3 W 6 9 3 5 1010.3 1010.3 0.0
24/06:00pm 26.5 27.2 16.1 52 6.4 W 7 13 4 7 1010.2 1010.2 0.0
24/05:30pm 26.8 26.8 15.2 49 7.1 W 9 13 5 7 1010.1 1010.1 0.0
24/05:00pm 26.9 26.9 14.3 46 7.6 WSW 7 17 4 9 1010.0 1010.0 0.0
24/04:30pm 27.5 27.6 15.5 48 7.4 WSW 9 15 5 8 1010.1 1010.1 0.0
24/04:00pm 26.2 26.1 15.9 53 6.3 W 11 19 6 10 1010.2 1010.2 0.0
24/03:30pm 26.2 25.8 15.3 51 6.6 WSW 11 20 6 11 1010.4 1010.4 0.0
24/03:00pm 26.1 27.4 17.5 59 5.4 WSW 7 11 4 6 1010.4 1010.4 0.0
24/02:30pm 25.9 25.9 17.3 59 5.4 W 13 20 7 11 1010.7 1010.7 0.0
24/02:00pm 26.4 27.7 18.5 62 5.1 W 9 15 5 8 1011.0 1011.0 0.0
24/01:30pm 26.2 27.2 17.8 60 5.3 W 9 15 5 8 1011.0 1011.0 0.0
24/01:00pm 24.5 26.9 18.0 67 4.1 W 2 6 1 3 1011.0 1011.0 0.0
24/12:30pm 22.9 24.8 16.7 68 3.8 W 2 7 1 4 1011.1 1011.1 0.0
24/12:00pm 21.6 23.3 16.1 71 3.3 S 2 6 1 3 1011.4 1011.4 0.0
24/11:30am 21.0 22.5 16.6 76 2.7 SSE 4 6 2 3 1011.7 1011.7 0.0
24/11:00am 20.1 21.2 16.5 80 2.2 E 6 9 3 5 1011.7 1011.7 0.0
24/10:30am 18.7 18.2 15.8 83 1.7 E 13 19 7 10 1011.7 1011.7 0.0
24/10:00am 17.9 17.2 15.5 86 1.4 E 13 20 7 11 1011.9 1011.9 0.0
24/09:30am 16.9 16.1 15.1 89 1.1 E 13 22 7 12 1012.0 1012.0 0.0
24/09:00am 16.6 15.8 15.1 91 0.9 E 13 19 7 10 1012.3 1012.3 0.2
24/08:30am 16.2 14.9 14.9 92 0.8 E 15 26 8 14 1012.4 1012.4 0.2
24/08:00am 15.4 12.6 14.4 94 0.6 E 22 32 12 17 1012.4 1012.4 0.2
24/07:30am 15.2 13.0 14.4 95 0.5 E 19 30 10 16 1012.6 1012.6 0.2
24/07:00am 15.0 12.5 14.2 95 0.5 E 20 35 11 19 1012.6 1012.6 0.2
24/06:30am 15.0 12.7 14.2 95 0.5 E 19 30 10 16 1012.8 1012.8 0.2
24/06:00am 15.2 12.8 14.4 95 0.5 E 20 30 11 16 1012.8 1012.8 0.2
24/05:30am 15.3 13.1 14.5 95 0.5 E 19 32 10 17 1012.8 1012.8 0.2
24/05:00am 15.3 12.9 14.5 95 0.5 E 20 32 11 17 1012.8 1012.8 0.2
24/04:30am 15.4 12.7 14.6 95 0.5 E 22 37 12 20 1012.9 1012.9 0.2
24/04:00am 15.3 12.2 14.5 95 0.5 E 24 39 13 21 1013.0 1013.0 0.2
24/03:30am 15.3 12.2 14.5 95 0.5 E 24 35 13 19 1013.2 1013.2 0.2
24/03:10am 15.3 11.5 14.7 96 0.3 E 28 48 15 26 1013.4 1013.4 0.2
24/03:00am 15.3 12.6 14.7 96 0.3 E 22 35 12 19 1013.6 1013.5 0.2
24/02:30am 15.2 12.1 14.6 96 0.3 E 24 37 13 20 1014.1 1014.0 0.2
24/02:00am 15.2 11.7 14.6 96 0.3 E 26 39 14 21 1014.4 1014.3 0.2
24/01:30am 15.1 11.6 14.5 96 0.3 E 26 43 14 23 1014.9 1014.8 0.2
24/01:00am 15.0 11.9 14.4 96 0.3 E 24 41 13 22 1015.4 1015.3 0.2
24/12:30am 14.9 11.7 14.3 96 0.3 E 24 35 13 19 1015.7 1015.6 0.2
24/12:00am 14.9 11.0 14.3 96 0.3 E 28 48 15 26 1016.0 1015.9 0.2
 
Date/Time
EDT
Temp
°C
App
Temp
°C
Dew
Point
Rel
Hum
%
Delta-T
°C
Wind Press
QNH
hPa
Press
MSL
hPa
Rain
since 9 am
mm
Dir
 
Spd
km/h
Gust
km/h
Spd
kts
Gust
kts
23/11:30pm 14.8 10.8 14.2 96 0.3 E 28 46 15 25 1016.2 1016.1 0.2
23/11:00pm 14.8 10.4 14.0 95 0.5 E 30 50 16 27 1016.5 1016.5 0.2
23/10:34pm 14.7 10.6 13.9 95 0.5 E 28 46 15 25 1016.6 1016.6 0.2
23/10:30pm 14.8 10.4 14.0 95 0.5 E 30 46 16 25 1016.5 1016.5 0.2
23/10:00pm 14.7 10.2 13.9 95 0.5 E 30 48 16 26 1016.8 1016.8 0.2
23/09:51pm 14.6 10.1 13.8 95 0.5 E 30 50 16 27 1016.9 1016.9 0.2
23/09:30pm 14.6 10.1 13.8 95 0.5 E 30 46 16 25 1017.0 1017.0 0.2
23/09:10pm 14.5 10.0 13.7 95 0.4 E 30 48 16 26 1017.0 1017.0 0.2
23/09:00pm 14.5 9.4 13.7 95 0.4 E 33 52 18 28 1017.0 1017.0 0.2
23/08:30pm 14.4 8.9 13.6 95 0.4 E 35 56 19 30 1017.0 1017.0 0.2
23/08:02pm 14.5 10.0 13.7 95 0.4 E 30 50 16 27 1017.1 1017.1 0.2
23/08:00pm 14.5 10.4 13.7 95 0.4 E 28 43 15 23 1017.1 1017.1 0.2
23/07:30pm 14.6 10.0 13.6 94 0.6 E 30 50 16 27 1017.0 1017.0 0.2
23/07:00pm 14.6 9.4 13.5 93 0.6 E 33 52 18 28 1016.9 1016.9 0.2
23/06:32pm 14.7 9.5 13.4 92 0.7 E 33 54 18 29 1016.9 1016.9 0.2
23/06:30pm 14.6 9.4 13.3 92 0.7 E 33 50 18 27 1016.9 1016.9 0.2
23/06:00pm 14.8 9.8 13.3 91 0.8 E 32 54 17 29 1017.0 1017.0 0.2
23/05:30pm 15.4 11.7 13.8 90 0.9 E 26 46 14 25 1017.2 1017.2 0.2
23/05:00pm 15.5 11.4 13.9 90 0.9 E 28 44 15 24 1017.1 1017.1 0.2
23/04:42pm 15.4 10.3 13.8 90 0.9 E 33 61 18 33 1017.2 1017.2 0.2
23/04:30pm 15.4 10.9 13.9 91 0.8 E 30 46 16 25 1017.3 1017.3 0.2
23/04:07pm 15.7 11.2 13.9 89 1.0 E 30 50 16 27 1017.4 1017.4 0.2
23/04:00pm 15.9 11.5 14.1 89 1.0 E 30 44 16 24 1017.5 1017.5 0.2
23/03:30pm 15.8 11.8 14.2 90 0.9 E 28 41 15 22 1017.7 1017.7 0.2
23/03:02pm 16.1 12.2 14.3 89 1.0 E 28 50 15 27 1017.8 1017.8 0.2
23/03:00pm 16.1 12.2 14.3 89 1.0 E 28 46 15 25 1017.8 1017.8 0.2
23/02:34pm 16.4 12.6 14.8 90 0.9 E 28 48 15 26 1018.2 1018.2 0.2
23/02:30pm 16.1 11.8 14.3 89 1.0 E 30 48 16 26 1018.3 1018.3 0.2
23/02:27pm 16.2 12.3 14.4 89 1.0 E 28 48 15 26 1018.3 1018.3 0.2
23/02:00pm 16.2 13.5 14.6 90 0.9 E 22 35 12 19 1018.7 1018.7 0.2
23/01:30pm 16.3 12.7 14.3 88 1.1 E 26 39 14 21 1019.0 1019.0 0.2
23/01:00pm 16.9 14.5 14.4 85 1.4 E 20 35 11 19 1019.2 1019.2 0.2
23/12:30pm 16.6 14.3 14.1 85 1.4 E 19 28 10 15 1019.4 1019.4 0.2
23/12:00pm 16.3 15.1 14.1 87 1.3 E 13 20 7 11 1019.9 1019.9 0.2
23/11:30am 16.2 15.5 14.2 88 1.1 E 11 17 6 9 1020.2 1020.2 0.2
23/11:00am 15.7 15.7 13.7 88 1.1 E 6 11 3 6 1020.5 1020.5 0.2
23/10:30am 15.2 15.0 13.6 90 0.9 E 7 11 4 6 1020.7 1020.7 0.0
23/10:00am 14.8 14.6 13.5 92 0.7 ESE 7 11 4 6 1020.6 1020.6 0.0
23/09:30am 14.7 15.8 13.4 92 0.7 CALM 0 4 0 2 1020.4 1020.4 0.0
23/09:00am 14.5 15.2 13.5 94 0.6 SSW 2 4 1 2 1020.2 1020.2 0.4
23/08:30am 14.4 15.6 13.8 96 0.3 CALM 0 0 0 0 1020.4 1020.4 0.4
23/08:00am 14.2 15.0 13.7 97 0.3 W 2 4 1 2 1020.3 1020.3 0.4
23/07:30am 14.1 14.5 13.8 98 0.2 WNW 4 6 2 3 1020.2 1020.2 0.4
23/07:00am 14.0 14.0 13.7 98 0.2 W 6 7 3 4 1019.7 1019.7 0.4
23/06:30am 14.0 14.0 13.7 98 0.2 W 6 9 3 5 1019.4 1019.4 0.4
23/06:00am 13.9 13.3 13.6 98 0.2 W 9 15 5 8 1019.0 1019.0 0.4
23/05:30am 13.9 12.1 13.4 97 0.3 W 15 22 8 12 1018.4 1018.4 0.4
23/05:00am 13.8 12.1 13.5 98 0.2 W 15 22 8 12 1018.0 1018.0 0.4
23/04:30am 14.0 11.9 13.5 97 0.3 W 17 26 9 14 1017.5 1017.5 0.4
23/04:00am 14.2 12.5 13.6 96 0.3 W 15 22 8 12 1017.4 1017.4 0.4
23/03:30am 14.6 13.9 13.3 92 0.7 W 9 17 5 9 1017.4 1017.4 0.4
23/03:00am 15.4 15.4 13.6 89 1.0 WSW 6 9 3 5 1017.6 1017.6 0.4
23/02:30am 15.6 15.4 13.6 88 1.1 WSW 7 17 4 9 1018.3 1018.3 0.4
23/02:19am 15.9 15.0 13.6 86 1.3 WSW 11 19 6 10 1018.2 1018.2 0.4
23/02:00am 15.6 11.6 14.0 90 0.9 NE 28 39 15 21 1016.2 1016.1 0.4
23/01:54am 15.1 11.8 14.0 93 0.6 NE 24 33 13 18 1016.6 1016.6 0.4
23/01:30am 15.3 15.3 14.3 94 0.6 NNW 7 9 4 5 1018.6 1018.6 0.4
23/01:00am 15.1 14.7 14.0 93 0.6 W 9 19 5 10 1019.1 1019.1 0.2
23/12:30am 15.8 13.3 13.5 86 1.3 W 19 28 10 15 1019.0 1019.0 0.0
23/12:00am 16.9 12.6 13.2 79 2.1 W 28 37 15 20 1018.3 1018.3 0.0
 
Date/Time
EDT
Temp
°C
App
Temp
°C
Dew
Point
Rel
Hum
%
Delta-T
°C
Wind Press
QNH
hPa
Press
MSL
hPa
Rain
since 9 am
mm
Dir
 
Spd
km/h
Gust
km/h
Spd
kts
Gust
kts
22/11:51pm 17.7 13.5 13.4 76 2.4 W 28 35 15 19 1017.8 1017.8 0.0
22/11:30pm 18.6 18.8 14.7 78 2.3 WNW 7 13 4 7 1016.8 1016.8 0.0
22/11:00pm 20.0 19.8 15.8 77 2.5 W 11 19 6 10 1016.9 1016.9 0.0
22/10:30pm 20.7 20.9 15.7 73 3.0 NNW 9 15 5 8 1016.8 1016.8 0.0
22/10:00pm 20.0 20.7 16.0 78 2.4 WNW 7 13 4 7 1017.2 1017.2 0.0
22/09:30pm 19.9 21.4 16.7 82 1.9 SSW 4 7 2 4 1016.4 1016.4 0.0
22/09:00pm 20.9 22.8 16.7 77 2.6 E 2 4 1 2 1016.0 1015.9 0.0
22/08:30pm 22.1 23.3 15.9 68 3.8 SE 4 9 2 5 1015.6 1015.5 0.0
22/08:00pm 23.4 25.0 16.0 63 4.5 NE 2 7 1 4 1015.1 1015.0 0.0
22/07:30pm 23.0 24.3 17.2 70 3.6 NE 6 9 3 5 1014.8 1014.7 0.0
22/07:00pm 26.1 28.1 16.1 54 6.2 CALM 0 0 0 0 1015.1 1015.0 0.0
22/06:30pm 26.6 28.4 16.5 54 6.3 E 2 4 1 2 1015.0 1014.9 0.0
22/06:00pm 28.2 30.0 16.5 49 7.3 SSE 2 4 1 2 1015.1 1015.0 0.0
22/05:30pm 29.4 30.1 12.3 34 10.1 CALM 0 4 0 2 1015.2 1015.1 0.0
22/05:00pm 29.7 30.5 12.6 35 10.1 CALM 0 0 0 0 1015.4 1015.3 0.0
22/04:30pm 29.9 30.8 12.8 35 10.2 CALM 0 0 0 0 1015.7 1015.6 0.0
22/04:00pm 30.0 30.7 14.5 38 9.4 WSW 4 7 2 4 1015.9 1015.8 0.0
22/03:30pm 29.6 29.0 11.6 33 10.5 W 6 9 3 5 1016.1 1016.0 0.0
22/03:00pm 28.6 29.0 13.7 40 8.9 WSW 4 9 2 5 1016.6 1016.6 0.0
22/02:30pm 28.0 28.2 14.3 43 8.3 SSW 6 7 3 4 1016.9 1016.9 0.0
22/02:00pm 27.9 29.0 15.5 46 7.6 WNW 4 9 2 5 1017.3 1017.3 0.0
22/01:30pm 26.9 28.3 15.3 49 7.1 W 2 6 1 3 1017.7 1017.7 0.0
22/01:00pm 25.8 27.1 16.1 55 6.0 SSW 4 6 2 3 1018.0 1018.0 0.0
22/12:30pm 25.2 27.1 16.6 59 5.3 ESE 2 6 1 3 1018.4 1018.4 0.0
22/12:00pm 23.9 25.2 16.2 62 4.7 E 4 7 2 4 1018.8 1018.8 0.0
22/11:30am 22.8 23.8 15.4 63 4.5 SE 4 7 2 4 1019.2 1019.2 0.0
22/11:00am 21.7 22.6 16.2 71 3.3 SE 6 9 3 5 1019.4 1019.4 0.0
22/10:30am 20.6 21.3 15.6 73 3.0 SE 6 9 3 5 1019.9 1019.9 0.0
22/10:00am 19.0 18.7 13.4 70 3.2 ESE 7 13 4 7 1019.7 1019.7 0.0
22/09:30am 17.5 16.2 12.6 73 2.7 E 11 19 6 10 1019.7 1019.7 0.0
22/09:00am 16.6 15.8 12.8 78 2.1 E 9 13 5 7 1019.7 1019.7 0.0
22/08:30am 15.1 13.9 11.7 80 1.8 ENE 9 11 5 6 1019.8 1019.8 0.0
22/08:00am 14.1 12.8 11.3 83 1.5 E 9 11 5 6 1020.0 1020.0 0.0
22/07:30am 12.5 11.3 10.4 87 1.1 E 7 11 4 6 1020.1 1020.1 0.0
22/07:00am 11.6 10.4 10.3 92 0.7 E 7 13 4 7 1020.2 1020.2 0.0
22/06:30am 10.9 9.6 9.8 93 0.6 E 7 13 4 7 1020.4 1020.4 0.0
22/06:00am 10.6 9.2 9.4 92 0.6 E 7 9 4 5 1020.3 1020.3 0.0
22/05:30am 11.0 9.9 9.9 93 0.6 E 6 11 3 6 1020.1 1020.1 0.0
22/05:00am 11.7 10.2 10.4 92 0.7 E 9 17 5 9 1020.1 1020.1 0.0
22/04:30am 11.3 9.8 10.4 94 0.5 E 9 13 5 7 1020.3 1020.3 0.0
22/04:00am 10.9 9.6 9.8 93 0.6 E 7 11 4 6 1020.6 1020.6 0.0
22/03:30am 11.3 9.4 10.4 94 0.5 ENE 11 17 6 9 1020.8 1020.8 0.0
22/03:00am 11.1 9.5 10.3 95 0.4 E 9 15 5 8 1021.2 1021.2 0.0
22/02:30am 11.1 9.9 10.2 94 0.5 E 7 11 4 6 1021.7 1021.6 0.0
22/02:00am 11.2 9.6 10.3 94 0.5 E 9 13 5 7 1022.0 1021.9 0.0
22/01:30am 11.0 9.7 10.1 94 0.5 E 7 11 4 6 1022.6 1022.5 0.0
22/01:00am 11.2 9.6 10.3 94 0.5 E 9 13 5 7 1023.0 1023.0 0.0
22/12:30am 11.4 9.8 10.1 92 0.7 E 9 13 5 7 1023.4 1023.4 0.0
22/12:00am 11.9 9.9 10.3 90 0.8 E 11 17 6 9 1023.9 1023.9 0.0
 
Date/Time
EDT
Temp
°C
App
Temp
°C
Dew
Point
Rel
Hum
%
Delta-T
°C
Wind Press
QNH
hPa
Press
MSL
hPa
Rain
since 9 am
mm
Dir
 
Spd
km/h
Gust
km/h
Spd
kts
Gust
kts
21/11:30pm 12.2 10.3 10.4 89 0.9 E 11 19 6 10 1024.2 1024.2 0.0
21/11:00pm 12.6 10.7 10.5 87 1.1 E 11 17 6 9 1024.4 1024.4 0.0

Other Formats:

Comma delimited format used in spreadsheet applications
http://www.bom.gov.au/fwo/IDV60801/IDV60801.99806.axf

JavaScript Object Notation format (JSON) in row-major order
http://www.bom.gov.au/fwo/IDV60801/IDV60801.99806.json